Time;durP1;ratioP1;P1;durP2;ratioP2;P2;SDS_P1;SDS_P2;PMS_P1;PMS_P2;Temp;Humidity;BMP_temperature;BMP_pressure;BME280_temperature;BME280_humidity;BME280_pressure;Samples;Min_cycle;Max_cycle;Signal;HPM_P1;HPM_P2
2021/03/23 00:25:20;;;;;;;20.30;12.10;;;;;;;1.76;81.26;100540.03;21040619;27;20591;-65
2021/03/23 00:35:21;;;;;;;15.97;9.23;;;;;;;1.87;82.71;100541.53;20983623;28;20277;-65
2021/03/23 01:15:14;;;;;;;15.23;10.23;;;;;;;1.74;84.11;100518.16;20876730;28;20565;-66
2021/03/23 01:35:12;;;;;;;18.50;10.60;;;;;;;1.68;86.12;100515.69;20795846;28;20585;-65
2021/03/23 02:05:12;;;;;;;15.83;10.23;;;;;;;1.64;87.31;100506.13;20858403;28;20556;-65
2021/03/23 02:35:05;;;;;;;19.67;10.07;;;;;;;1.76;85.16;100529.50;20927631;27;20702;-62
2021/03/23 03:35:05;;;;;;;10.03;6.33;;;;;;;1.87;84.44;100489.75;21076208;27;21197;-62
2021/03/23 04:05:03;;;;;;;12.57;6.73;;;;;;;1.71;83.88;100512.09;20874597;27;20670;-60
2021/03/23 04:15:05;;;;;;;10.03;7.10;;;;;;;1.84;83.92;100531.06;20871528;28;20224;-60
2021/03/23 04:25:07;;;;;;;13.40;8.30;;;;;;;1.77;84.17;100536.50;20784319;28;20582;-60
2021/03/23 04:35:11;;;;;;;11.93;7.23;;;;;;;1.80;81.69;100525.03;20787982;28;20627;-65
2021/03/23 05:34:51;;;;;;;14.87;8.80;;;;;;;2.34;80.42;100564.84;20907734;27;20682;-65
2021/03/23 06:14:51;;;;;;;9.83;7.13;;;;;;;3.22;75.37;100590.47;20921618;27;920176;-64
2021/03/23 06:34:54;;;;;;;10.20;6.67;;;;;;;3.52;76.21;100610.63;20779480;28;20601;-63
2021/03/23 07:04:46;;;;;;;16.08;7.45;;;;;;;4.40;74.39;100608.63;20814093;27;879512;-59
2021/03/23 07:14:48;;;;;;;13.33;7.37;;;;;;;4.83;72.93;100613.31;20779072;28;20238;-61
2021/03/23 07:35:12;;;;;;;10.33;6.60;;;;;;;5.56;69.69;100626.41;20742670;27;20984;-61
2021/03/23 07:45:26;;;;;;;10.90;6.90;;;;;;;5.94;69.36;100630.22;20722885;28;20347;-62
2021/03/23 08:05:36;;;;;;;10.57;6.80;;;;;;;6.13;68.79;100618.81;20819475;27;20552;-59
2021/03/23 08:15:46;;;;;;;10.20;6.93;;;;;;;6.25;69.07;100600.69;20822896;28;20239;-61
2021/03/23 08:25:58;;;;;;;11.50;6.73;;;;;;;6.45;70.90;100648.41;20810114;28;21094;-60
2021/03/23 08:36:41;;;;;;;11.63;7.07;;;;;;;6.69;70.97;100643.84;20802696;28;20227;-59
2021/03/23 08:57:03;;;;;;;12.03;7.30;;;;;;;7.66;66.52;100657.16;20885439;28;20603;-60
2021/03/23 09:07:12;;;;;;;8.50;5.83;;;;;;;7.83;66.92;100657.25;20681742;28;20720;-62
2021/03/23 09:17:16;;;;;;;9.73;6.30;;;;;;;8.15;65.74;100669.84;20666119;28;20305;-62
2021/03/23 09:27:46;;;;;;;8.97;6.80;;;;;;;8.31;65.30;100669.94;20715352;28;20230;-62
2021/03/23 09:47:47;;;;;;;7.80;5.60;;;;;;;8.97;65.32;100684.31;20908788;27;20613;-62
2021/03/23 09:57:53;;;;;;;8.90;6.10;;;;;;;9.35;62.26;100684.97;20886186;28;20229;-63
2021/03/23 10:08:18;;;;;;;10.83;7.13;;;;;;;9.83;59.01;100683.25;20907316;28;20823;-61
2021/03/23 10:18:34;;;;;;;9.63;8.00;;;;;;;11.09;56.48;100705.28;20893165;28;20473;-60
2021/03/23 10:28:48;;;;;;;10.10;7.40;;;;;;;10.90;58.88;100704.66;20888910;28;20714;-60
2021/03/23 10:38:48;;;;;;;11.70;7.30;;;;;;;10.64;59.89;100706.19;20905686;28;20285;-60
2021/03/23 10:48:49;;;;;;;7.73;6.30;;;;;;;10.72;59.59;100700.41;20877285;28;20223;-64
2021/03/23 10:59:07;;;;;;;8.37;5.60;;;;;;;10.82;58.04;100709.59;20844441;28;20246;-63
2021/03/23 11:09:10;;;;;;;7.43;5.73;;;;;;;11.22;60.20;100715.22;20798066;28;20470;-62
2021/03/23 11:19:31;;;;;;;9.70;6.43;;;;;;;11.07;56.94;100730.38;20839165;28;20227;-64
2021/03/23 11:29:32;;;;;;;8.90;6.40;;;;;;;10.78;57.51;100721.41;20837505;28;20223;-63
2021/03/23 11:39:32;;;;;;;9.97;6.43;;;;;;;11.05;59.48;100729.59;20838948;28;20257;-64
2021/03/23 11:50:05;;;;;;;9.23;6.53;;;;;;;11.31;56.02;100736.03;20825884;28;20254;-65
2021/03/23 12:00:08;;;;;;;11.17;7.70;;;;;;;11.50;58.37;100731.28;20832812;28;20243;-63
2021/03/23 12:10:11;;;;;;;9.77;7.63;;;;;;;11.30;58.46;100719.16;20830993;28;20236;-62
2021/03/23 12:20:19;;;;;;;13.93;8.37;;;;;;;11.31;57.33;100710.19;20828352;28;20242;-61
2021/03/23 12:30:20;;;;;;;8.47;6.87;;;;;;;11.56;59.04;100709.53;20832514;28;20239;-64
2021/03/23 12:40:22;;;;;;;11.70;8.07;;;;;;;11.43;58.74;100704.09;20814639;28;20239;-63
2021/03/23 12:50:23;;;;;;;14.03;8.80;;;;;;;11.72;59.03;100710.28;20832558;28;20247;-61
2021/03/23 13:00:38;;;;;;;18.43;9.70;;;;;;;11.98;58.83;100705.13;20814601;28;20277;-64
2021/03/23 13:10:42;;;;;;;8.77;7.10;;;;;;;11.72;56.23;100712.94;20832690;28;20317;-64
2021/03/23 13:20:43;;;;;;;15.63;8.47;;;;;;;11.01;56.87;100643.44;20817632;28;20223;-65
2021/03/23 13:30:43;;;;;;;8.67;7.40;;;;;;;11.42;57.34;100709.53;20825964;28;20229;-62
2021/03/23 13:40:46;;;;;;;11.47;7.93;;;;;;;11.38;58.47;100711.50;20801522;28;21106;-65
2021/03/23 13:50:47;;;;;;;14.90;8.63;;;;;;;11.15;58.96;100720.94;20665173;28;20228;-66
2021/03/23 14:00:49;;;;;;;8.52;6.93;;;;;;;11.13;57.58;100709.47;20710210;28;20224;-66
2021/03/23 14:10:51;;;;;;;9.33;6.60;;;;;;;11.23;58.14;100700.94;20696056;28;20221;-66
2021/03/23 14:20:52;;;;;;;23.57;15.03;;;;;;;10.92;58.57;100701.91;20728786;28;20270;-65
2021/03/23 14:30:54;;;;;;;8.87;6.00;;;;;;;10.81;57.67;100718.56;20692995;28;20241;-64
2021/03/23 14:40:57;;;;;;;8.70;5.47;;;;;;;10.56;59.26;100707.59;20685687;28;20246;-64
2021/03/23 15:00:53;;;;;;;7.10;5.50;;;;;;;10.18;59.96;100705.31;20986073;27;20545;-66
2021/03/23 15:10:57;;;;;;;8.43;6.10;;;;;;;10.22;63.40;100714.84;20975034;27;20510;-67
2021/03/23 15:20:58;;;;;;;11.50;7.77;;;;;;;10.15;61.93;100716.09;20976093;28;20225;-66
2021/03/23 15:40:54;;;;;;;8.63;6.93;;;;;;;9.81;63.98;100727.78;20951191;27;863210;-66
2021/03/23 15:50:56;;;;;;;12.97;8.70;;;;;;;9.68;64.46;100732.91;20987882;28;20242;-65
2021/03/23 16:00:57;;;;;;;11.77;8.17;;;;;;;9.53;65.76;100731.09;20944277;28;20226;-65
2021/03/23 16:30:54;;;;;;;9.60;6.93;;;;;;;9.06;66.93;100748.69;20839859;27;20597;-65
2021/03/23 16:40:55;;;;;;;9.60;7.07;;;;;;;8.91;69.07;100756.50;20932203;28;20630;-67
2021/03/23 16:50:56;;;;;;;11.93;8.40;;;;;;;8.75;68.78;100760.88;20946309;28;20306;-63
2021/03/23 17:00:57;;;;;;;17.00;10.02;;;;;;;8.63;69.60;100767.66;20921879;28;20221;-63
2021/03/23 17:10:57;;;;;;;12.63;9.27;;;;;;;8.51;70.87;100776.25;20934641;28;20210;-64
2021/03/23 17:20:58;;;;;;;18.17;11.33;;;;;;;8.37;71.31;100786.66;20956012;28;20262;-63
2021/03/23 17:30:59;;;;;;;14.07;9.75;;;;;;;8.33;71.64;100800.22;20917585;28;20221;-63
2021/03/23 17:41:00;;;;;;;11.40;8.80;;;;;;;8.24;72.55;100796.13;20807954;28;20225;-63
2021/03/23 18:00:58;;;;;;;117.00;72.03;;;;;;;7.95;74.01;100798.38;20831805;27;20898;-64
2021/03/23 18:10:59;;;;;;;46.63;30.67;;;;;;;7.96;74.79;100823.16;20798265;28;20222;-64
2021/03/23 18:21:00;;;;;;;17.57;11.83;;;;;;;7.93;73.85;100828.59;20780217;28;20930;-63
2021/03/23 18:31:00;;;;;;;15.63;11.30;;;;;;;7.88;74.21;100841.22;20783313;28;20290;-64
2021/03/23 18:41:01;;;;;;;15.97;11.33;;;;;;;7.82;74.54;100841.50;20849650;28;20233;-64
2021/03/23 18:51:05;;;;;;;12.33;9.53;;;;;;;7.77;74.76;100844.34;20860957;28;20220;-65
2021/03/23 19:01:06;;;;;;;9.87;8.40;;;;;;;7.78;74.99;100856.69;20870818;28;20257;-63
2021/03/23 19:11:07;;;;;;;30.07;17.03;;;;;;;7.62;76.42;100860.09;20828576;28;20694;-64
2021/03/23 19:31:06;;;;;;;45.23;26.33;;;;;;;7.51;77.49;100880.00;20966020;27;20349;-69
2021/03/23 19:44:52;;;;;;;19.00;13.35;;;;;;;7.50;77.15;100899.53;20820454;27;872049;-68
2021/03/23 20:04:49;;;;;;;14.27;9.90;;;;;;;7.45;76.65;100909.50;20864515;27;20606;-68
2021/03/23 20:14:49;;;;;;;12.70;9.50;;;;;;;7.43;75.69;100915.78;20856669;28;20299;-68
2021/03/23 20:24:50;;;;;;;13.13;9.73;;;;;;;7.28;75.97;100914.63;20890065;28;20219;-68
2021/03/23 20:34:50;;;;;;;10.60;7.30;;;;;;;7.36;74.76;100931.13;20851404;28;20223;-66
2021/03/23 20:54:46;;;;;;;8.23;5.00;;;;;;;7.22;74.23;100937.00;20854600;27;20668;-67
2021/03/23 21:14:44;;;;;;;7.30;5.00;;;;;;;7.16;74.94;100936.34;20881211;27;20661;-65
2021/03/23 21:24:44;;;;;;;8.25;4.93;;;;;;;7.14;75.00;100954.13;20890707;28;20230;-65
2021/03/23 21:34:45;;;;;;;5.90;4.13;;;;;;;7.08;75.33;100965.00;20882070;28;20328;-66
2021/03/23 21:44:45;;;;;;;8.53;4.47;;;;;;;6.98;75.48;100964.50;20921362;27;20269;-65
2021/03/23 21:54:46;;;;;;;9.70;5.20;;;;;;;6.88;76.49;100974.59;20947264;27;20215;-65
2021/03/23 22:04:46;;;;;;;15.03;7.87;;;;;;;6.74;77.88;100995.50;20932308;27;20215;-64
2021/03/23 22:14:47;;;;;;;6.17;4.63;;;;;;;6.50;78.76;100973.41;20950419;27;20223;-63
2021/03/23 22:44:41;;;;;;;29.20;14.43;;;;;;;6.22;81.02;100998.31;20859688;27;20579;-64
2021/03/23 23:04:37;;;;;;;10.90;6.03;;;;;;;6.12;80.33;100998.66;20867184;27;21559;-64
2021/03/23 23:24:45;;;;;;;18.47;8.23;;;;;;;5.95;81.19;101016.91;20953597;27;20565;-64
2021/03/23 23:34:45;;;;;;;6.97;5.07;;;;;;;5.87;81.24;101024.22;20938552;27;20284;-64
2021/03/23 23:54:42;;;;;;;6.73;4.03;;;;;;;5.82;79.53;101052.63;20775226;28;20589;-64
